createdAt,value
2023-05-20T00:04:25.493Z,12.98
2023-05-20T00:09:27.184Z,12.98
2023-05-20T00:14:28.826Z,12.88
2023-05-20T00:19:30.967Z,13.00
2023-05-20T00:24:32.689Z,12.78
2023-05-20T00:29:34.769Z,12.54
2023-05-20T00:34:36.444Z,12.60
2023-05-20T00:39:38.153Z,12.49
2023-05-20T00:44:39.810Z,12.42
2023-05-20T00:49:41.678Z,12.42
2023-05-20T00:54:43.564Z,12.62
2023-05-20T00:59:45.593Z,12.41
2023-05-20T01:04:47.476Z,12.29
2023-05-20T01:09:49.388Z,12.18
2023-05-20T01:15:07.408Z,11.98
2023-05-20T01:20:10.514Z,11.79
2023-05-20T01:25:12.231Z,11.44
2023-05-20T01:30:14.245Z,11.44
2023-05-20T01:35:17.256Z,11.29
2023-05-20T01:40:19.596Z,11.23
2023-05-20T01:45:21.535Z,11.18
2023-05-20T01:50:23.268Z,11.18
2023-05-20T01:55:25.038Z,11.01
2023-05-20T02:00:26.937Z,11.01
2023-05-20T02:05:28.664Z,10.86
2023-05-20T02:10:30.492Z,10.69
2023-05-20T02:15:32.380Z,10.59
2023-05-20T02:20:37.395Z,10.53
2023-05-20T02:25:39.058Z,10.20
2023-05-20T02:30:40.754Z,9.98
2023-05-20T02:35:42.430Z,10.00
2023-05-20T02:40:45.142Z,10.16
2023-05-20T02:45:47.378Z,10.24
2023-05-20T02:50:49.186Z,10.18
2023-05-20T02:55:50.921Z,10.28
2023-05-20T03:00:53.151Z,10.47
2023-05-20T03:05:55.477Z,10.86
2023-05-20T03:10:58.821Z,11.16
2023-05-20T03:16:01.606Z,11.35
2023-05-20T03:21:04.227Z,11.49
2023-05-20T03:26:06.914Z,11.57
2023-05-20T03:31:08.992Z,11.77
2023-05-20T03:36:10.969Z,11.93
2023-05-20T03:41:12.884Z,12.10
2023-05-20T03:46:14.894Z,11.90
2023-05-20T03:51:16.844Z,12.13
2023-05-20T03:56:21.093Z,12.27
2023-05-20T04:01:25.728Z,12.08
2023-05-20T04:06:27.737Z,12.22
2023-05-20T04:11:31.119Z,12.12
2023-05-20T04:16:32.818Z,12.13
2023-05-20T04:21:34.706Z,12.06
2023-05-20T04:26:36.605Z,12.15
2023-05-20T04:31:38.677Z,12.42
2023-05-20T04:36:40.800Z,12.64
2023-05-20T04:41:42.954Z,12.54
2023-05-20T04:46:46.176Z,12.63
2023-05-20T04:51:50.131Z,12.60
2023-05-20T04:56:53.578Z,12.39
2023-05-20T05:01:55.240Z,12.43
2023-05-20T05:06:58.148Z,12.60
2023-05-20T05:11:59.818Z,12.43
2023-05-20T05:17:01.539Z,12.66
2023-05-20T05:22:03.889Z,12.62
2023-05-20T05:27:06.099Z,12.59
2023-05-20T05:32:08.120Z,12.63
2023-05-20T05:37:10.015Z,12.41
2023-05-20T05:42:12.230Z,12.64
2023-05-20T05:47:14.915Z,12.63
2023-05-20T05:52:16.936Z,12.65
2023-05-20T05:57:18.670Z,12.90
2023-05-20T06:02:22.271Z,13.44
2023-05-20T06:07:24.164Z,13.77
2023-05-20T06:12:26.891Z,13.88
2023-05-20T06:17:28.676Z,13.67
2023-05-20T06:22:30.557Z,14.15
2023-05-20T06:27:32.512Z,13.95
2023-05-20T06:32:34.274Z,13.53
2023-05-20T06:37:36.122Z,14.32
2023-05-20T06:42:37.967Z,13.78
2023-05-20T06:47:40.889Z,13.74
2023-05-20T06:52:43.588Z,13.97
2023-05-20T06:57:46.402Z,13.98
2023-05-20T07:02:49.434Z,14.12
2023-05-20T07:07:51.674Z,14.25
2023-05-20T07:12:53.485Z,14.63
2023-05-20T07:17:55.574Z,14.75
2023-05-20T07:22:57.384Z,15.58
2023-05-20T07:28:06.812Z,15.46
2023-05-20T07:33:08.595Z,16.12
2023-05-20T07:38:12.524Z,15.49
2023-05-20T07:43:14.782Z,15.98
2023-05-20T07:48:16.850Z,16.66
2023-05-20T07:53:18.826Z,17.34
2023-05-20T07:58:20.808Z,17.56
2023-05-20T08:03:23.482Z,19.93
2023-05-20T08:08:36.618Z,24.78
2023-05-20T08:13:44.188Z,27.41
2023-05-20T08:18:46.824Z,21.59
2023-05-20T08:23:48.553Z,23.46
2023-05-20T08:28:50.546Z,25.26
2023-05-20T08:33:53.440Z,20.28
2023-05-20T08:38:55.965Z,17.76
2023-05-20T08:44:00.856Z,17.44
2023-05-20T08:49:03.507Z,18.43
2023-05-20T08:54:05.355Z,18.78
2023-05-20T08:59:07.372Z,19.36
2023-05-20T09:04:09.878Z,19.01
2023-05-20T09:09:15.716Z,20.63
2023-05-20T09:14:17.433Z,20.90
2023-05-20T09:19:24.334Z,20.11
2023-05-20T09:24:27.238Z,20.27
2023-05-20T09:29:33.336Z,23.07
2023-05-20T09:34:35.356Z,25.42
2023-05-20T09:39:48.491Z,25.13
2023-05-20T09:44:51.856Z,22.87
2023-05-20T09:49:53.995Z,20.73
2023-05-20T09:54:57.564Z,20.67
2023-05-20T09:59:59.253Z,24.13
2023-05-20T10:05:10.966Z,23.00
2023-05-20T10:10:33.134Z,23.23
2023-05-20T10:16:08.627Z,23.60
2023-05-20T10:21:19.032Z,24.40
2023-05-20T10:26:22.523Z,25.43
2023-05-20T10:31:25.761Z,26.05
2023-05-20T10:36:29.199Z,25.77
2023-05-20T10:41:30.907Z,24.79
2023-05-20T10:46:48.176Z,24.89
2023-05-20T10:51:55.995Z,26.59
2023-05-20T10:56:58.000Z,24.99
2023-05-20T11:02:02.367Z,26.67
2023-05-20T11:07:04.356Z,26.34
2023-05-20T11:12:06.490Z,23.43
2023-05-20T11:17:08.321Z,25.58
2023-05-20T11:22:10.423Z,24.87
2023-05-20T11:27:12.171Z,24.97
2023-05-20T11:32:13.980Z,24.57
2023-05-20T11:37:16.147Z,24.41
2023-05-20T11:42:17.782Z,24.96
2023-05-20T11:47:27.593Z,24.39
2023-05-20T11:52:29.748Z,24.91
2023-05-20T11:57:31.788Z,24.83
2023-05-20T12:02:33.540Z,23.87
2023-05-20T12:07:36.772Z,21.41
2023-05-20T12:12:38.490Z,21.51
2023-05-20T12:17:48.850Z,22.00
2023-05-20T12:22:50.931Z,21.63
2023-05-20T12:27:52.627Z,21.03
2023-05-20T12:32:54.383Z,22.80
2023-05-20T12:37:56.534Z,24.61
2023-05-20T12:42:59.088Z,24.19
2023-05-20T12:48:00.985Z,23.93
2023-05-20T12:53:02.719Z,22.12
2023-05-20T12:58:04.392Z,23.08
2023-05-20T13:03:06.879Z,24.36
2023-05-20T13:08:10.276Z,22.81
2023-05-20T13:13:13.913Z,23.70
2023-05-20T13:18:16.675Z,22.43
2023-05-20T13:23:18.362Z,22.97
2023-05-20T13:28:20.936Z,22.14
2023-05-20T13:33:24.179Z,22.45
2023-05-20T13:38:25.929Z,22.62
2023-05-20T13:43:28.653Z,21.95
2023-05-20T13:48:30.412Z,21.86
2023-05-20T13:53:32.072Z,21.89
2023-05-20T13:58:33.725Z,22.24
2023-05-20T14:03:37.426Z,21.88
2023-05-20T14:08:39.193Z,21.49
2023-05-20T14:13:41.214Z,21.41
2023-05-20T14:18:42.919Z,21.17
2023-05-20T14:23:45.227Z,21.31
2023-05-20T14:28:47.085Z,21.45
2023-05-20T14:33:49.369Z,21.58
2023-05-20T14:38:51.159Z,21.78
2023-05-20T14:43:52.833Z,21.83
2023-05-20T14:48:54.537Z,21.67
2023-05-20T14:53:56.173Z,21.63
2023-05-20T14:58:57.867Z,21.60
2023-05-20T15:03:59.955Z,21.36
2023-05-20T15:09:02.405Z,21.39
2023-05-20T15:14:04.118Z,21.54
2023-05-20T15:19:05.879Z,21.92
2023-05-20T15:24:07.557Z,22.32
2023-05-20T15:29:09.255Z,21.86
2023-05-20T15:34:11.012Z,21.54
2023-05-20T15:39:13.106Z,21.39
2023-05-20T15:44:14.774Z,21.38
2023-05-20T15:49:16.710Z,21.45
2023-05-20T15:54:20.099Z,21.79
2023-05-20T15:59:22.014Z,21.74
2023-05-20T16:04:24.062Z,21.37
2023-05-20T16:09:25.819Z,21.28
2023-05-20T16:14:27.473Z,21.53
2023-05-20T16:19:29.299Z,21.96
2023-05-20T16:24:31.254Z,22.25
2023-05-20T16:29:33.232Z,21.75
2023-05-20T16:34:34.890Z,21.09
2023-05-20T16:39:36.598Z,20.85
2023-05-20T16:44:39.269Z,20.65
2023-05-20T16:49:40.911Z,20.76
2023-05-20T16:54:42.608Z,20.49
2023-05-20T16:59:44.937Z,20.44
2023-05-20T17:04:46.824Z,20.40
2023-05-20T17:09:48.519Z,20.51
2023-05-20T17:14:50.170Z,20.60
2023-05-20T17:19:51.839Z,20.39
2023-05-20T17:24:53.499Z,20.32
2023-05-20T17:29:55.278Z,20.06
2023-05-20T17:34:57.013Z,19.96
2023-05-20T17:39:58.689Z,19.77
2023-05-20T17:45:00.491Z,19.68
2023-05-20T17:50:02.846Z,19.65
2023-05-20T17:55:05.000Z,19.41
2023-05-20T18:00:10.224Z,19.27
2023-05-20T18:05:12.913Z,19.08
2023-05-20T18:10:14.578Z,18.88
2023-05-20T18:15:18.379Z,18.80
2023-05-20T18:20:20.132Z,18.65
2023-05-20T18:25:21.773Z,18.42
2023-05-20T18:30:23.550Z,18.36
2023-05-20T18:35:25.211Z,18.25
2023-05-20T18:40:28.213Z,18.05
2023-05-20T18:45:30.019Z,17.92
2023-05-20T18:50:31.993Z,17.84
2023-05-20T18:55:33.742Z,17.72
2023-05-20T19:00:35.611Z,17.61
2023-05-20T19:05:37.811Z,17.49
2023-05-20T19:10:39.751Z,17.33
2023-05-20T19:15:41.458Z,17.24
2023-05-20T19:20:43.133Z,17.14
2023-05-20T19:25:45.043Z,17.02
2023-05-20T19:30:47.213Z,16.89
2023-05-20T19:35:48.992Z,16.81
2023-05-20T19:40:50.658Z,16.55
2023-05-20T19:45:52.347Z,16.35
2023-05-20T19:50:54.015Z,16.21
2023-05-20T19:55:55.671Z,16.09
2023-05-20T20:00:57.356Z,16.09
2023-05-20T20:05:59.082Z,15.97
2023-05-20T20:11:00.826Z,15.55
2023-05-20T20:16:02.965Z,15.42
2023-05-20T20:21:05.697Z,15.26
2023-05-20T20:26:07.938Z,15.01
2023-05-20T20:31:09.689Z,14.87
2023-05-20T20:36:11.367Z,14.82
2023-05-20T20:41:16.146Z,14.88
2023-05-20T20:46:17.955Z,14.81
2023-05-20T20:51:19.887Z,14.65
2023-05-20T20:56:21.548Z,14.63
2023-05-20T21:01:23.578Z,14.42
2023-05-20T21:06:25.311Z,14.25
2023-05-20T21:11:28.059Z,14.32
2023-05-20T21:16:29.772Z,14.23
2023-05-20T21:21:31.847Z,14.19
2023-05-20T21:26:33.663Z,14.20
2023-05-20T21:31:35.413Z,14.02
2023-05-20T21:36:37.149Z,13.91
2023-05-20T21:41:38.795Z,13.95
2023-05-20T21:46:40.493Z,13.76
2023-05-20T21:51:42.243Z,13.52
2023-05-20T21:56:43.935Z,13.60
2023-05-20T22:01:45.743Z,13.56
2023-05-20T22:06:47.665Z,13.40
2023-05-20T22:11:49.792Z,13.29
2023-05-20T22:16:51.516Z,13.22
2023-05-20T22:21:53.210Z,13.25
2023-05-20T22:26:54.853Z,13.12
2023-05-20T22:31:56.611Z,13.01
2023-05-20T22:36:58.363Z,12.97
2023-05-20T22:42:00.036Z,12.81
2023-05-20T22:47:01.705Z,12.80
2023-05-20T22:52:03.530Z,12.85
2023-05-20T22:57:05.465Z,12.84
2023-05-20T23:02:07.847Z,12.71
2023-05-20T23:07:09.597Z,12.46
2023-05-20T23:12:11.308Z,12.38
2023-05-20T23:17:12.996Z,12.39
2023-05-20T23:22:15.014Z,12.40
2023-05-20T23:27:16.686Z,12.25
2023-05-20T23:32:18.346Z,12.40
2023-05-20T23:37:20.238Z,12.33
2023-05-20T23:42:21.889Z,12.16
2023-05-20T23:47:26.085Z,12.15
2023-05-20T23:52:28.323Z,12.32
2023-05-20T23:57:29.976Z,12.15
